Time;durP1;ratioP1;P1;durP2;ratioP2;P2;SDS_P1;SDS_P2;PMS_P1;PMS_P2;Temp;Humidity;BMP_temperature;BMP_pressure;BME280_temperature;BME280_humidity;BME280_pressure;Samples;Min_cycle;Max_cycle;Signal;HPM_P1;HPM_P2
2023/10/08 00:01:16;;;;;;;;;;;;;;;16.80;50.89;100766.28;4978989;27;98628;-62
2023/10/08 00:03:48;;;;;;;;;;;;;;;16.71;50.60;100765.34;4984558;27;98940;-61
2023/10/08 00:06:19;;;;;;;;;;;;;;;16.64;50.42;100757.56;5005769;27;98762;-62
2023/10/08 00:08:45;;;;;;;;;;;;;;;16.59;50.33;100768.56;4988580;27;101098;-56
2023/10/08 00:11:11;;;;;;;;;;;;;;;16.55;50.26;100761.31;4995336;27;98427;-62
2023/10/08 00:13:41;;;;;;;;;;;;;;;16.52;50.30;100765.41;4984981;27;98495;-55
2023/10/08 00:16:11;;;;;;;;;;;;;;;16.47;50.24;100762.00;4958492;27;99909;-62
2023/10/08 00:18:37;;;;;;;;;;;;;;;16.43;50.41;100776.19;4984964;27;98435;-62
2023/10/08 00:23:58;;;;;;;;;;;;;;;16.36;50.05;100769.50;4995062;27;98389;-62
2023/10/08 00:26:27;;;;;;;;;;;;;;;16.31;49.90;100767.69;4976652;27;99310;-56
2023/10/08 00:29:16;;;;;;;;;;;;;;;16.25;50.56;100787.09;4970584;27;98650;-61
2023/10/08 00:31:45;;;;;;;;;;;;;;;16.19;50.08;100794.53;4990544;27;98141;-55
2023/10/08 00:34:15;;;;;;;;;;;;;;;16.13;50.14;100796.53;4983198;27;99742;-61
2023/10/08 00:36:42;;;;;;;;;;;;;;;16.10;50.29;100801.75;4950817;27;98505;-61
2023/10/08 00:39:13;;;;;;;;;;;;;;;16.05;50.01;100810.00;4970233;27;98646;-55
2023/10/08 00:41:42;;;;;;;;;;;;;;;15.99;50.23;100797.56;4954228;27;100301;-61
2023/10/08 00:44:12;;;;;;;;;;;;;;;15.91;50.27;100802.56;4954482;27;101073;-55
2023/10/08 00:46:42;;;;;;;;;;;;;;;15.88;50.81;100802.38;4992661;27;98502;-55
2023/10/08 00:52:25;;;;;;;;;;;;;;;15.75;50.37;100811.25;4961762;27;99052;-55
2023/10/08 00:57:34;;;;;;;;;;;;;;;15.64;50.34;100824.13;4972383;27;99433;-55
2023/10/08 01:00:00;;;;;;;;;;;;;;;15.60;50.23;100826.66;4970381;27;98276;-61
2023/10/08 01:02:30;;;;;;;;;;;;;;;15.57;50.32;100826.41;4998354;27;99403;-61
2023/10/08 01:05:00;;;;;;;;;;;;;;;15.54;50.20;100832.44;4946391;27;100555;-55
2023/10/08 01:07:27;;;;;;;;;;;;;;;15.51;50.04;100827.56;4964705;27;98114;-55
2023/10/08 01:09:59;;;;;;;;;;;;;;;15.50;50.15;100839.53;4948324;27;98305;-61
2023/10/08 01:12:33;;;;;;;;;;;;;;;15.46;49.99;100818.38;4954220;27;98737;-61
2023/10/08 01:15:16;;;;;;;;;;;;;;;15.47;50.10;100851.78;4971306;27;98671;-60
2023/10/08 01:18:04;;;;;;;;;;;;;;;15.45;49.89;100843.13;4946618;27;98568;-61
2023/10/08 01:20:34;;;;;;;;;;;;;;;15.46;49.66;100852.91;4990788;27;98329;-55
2023/10/08 01:23:10;;;;;;;;;;;;;;;15.44;49.97;100844.22;4978948;27;99026;-61
2023/10/08 01:25:50;;;;;;;;;;;;;;;15.44;49.66;100849.66;4967980;27;99029;-55
2023/10/08 01:28:26;;;;;;;;;;;;;;;15.43;49.87;100850.75;4970751;27;99005;-61
2023/10/08 01:30:57;;;;;;;;;;;;;;;15.42;49.96;100855.38;4965080;27;98497;-60
2023/10/08 01:33:27;;;;;;;;;;;;;;;15.42;49.76;100854.56;4985701;27;98551;-61
2023/10/08 01:35:53;;;;;;;;;;;;;;;15.42;49.97;100862.72;4965973;27;99522;-61
2023/10/08 01:38:23;;;;;;;;;;;;;;;15.41;49.80;100863.84;4983864;27;98734;-61
2023/10/08 01:40:52;;;;;;;;;;;;;;;15.43;49.67;100870.56;4973246;27;98415;-61
2023/10/08 01:43:19;;;;;;;;;;;;;;;15.50;49.71;100872.13;4969424;27;98336;-54
2023/10/08 01:45:48;;;;;;;;;;;;;;;15.56;49.57;100876.41;4984438;27;98425;-61
2023/10/08 01:48:15;;;;;;;;;;;;;;;15.60;49.79;100883.69;4963336;27;99430;-61
2023/10/08 01:50:45;;;;;;;;;;;;;;;15.63;49.51;100882.28;4945836;27;100843;-61
2023/10/08 01:53:11;;;;;;;;;;;;;;;15.60;49.62;100883.69;4962890;27;98500;-55
2023/10/08 01:55:49;;;;;;;;;;;;;;;15.57;49.80;100903.28;4956851;27;98301;-61
2023/10/08 01:58:18;;;;;;;;;;;;;;;15.50;50.37;100908.25;4962841;27;98801;-55
2023/10/08 02:00:48;;;;;;;;;;;;;;;15.45;49.99;100917.28;4968117;27;98689;-61
2023/10/08 02:03:22;;;;;;;;;;;;;;;15.40;49.97;100920.03;4960520;27;99491;-61
2023/10/08 02:05:48;;;;;;;;;;;;;;;15.36;50.33;100937.19;4964933;27;100412;-55
2023/10/08 02:08:16;;;;;;;;;;;;;;;15.30;50.62;100935.66;4954207;28;126669;-55
2023/10/08 02:10:43;;;;;;;;;;;;;;;15.23;51.43;100941.41;4959972;27;98427;-62
2023/10/08 02:13:10;;;;;;;;;;;;;;;15.16;50.63;100940.94;4963489;28;99985;-55
2023/10/08 02:15:37;;;;;;;;;;;;;;;15.10;50.68;100933.94;4973677;27;98982;-61
2023/10/08 02:18:04;;;;;;;;;;;;;;;15.04;50.33;100964.94;4963627;27;98479;-61
2023/10/08 02:20:30;;;;;;;;;;;;;;;14.97;50.25;100974.25;4936497;27;98763;-61
2023/10/08 02:22:56;;;;;;;;;;;;;;;14.94;50.92;100982.13;4964077;27;98015;-55
2023/10/08 02:25:22;;;;;;;;;;;;;;;14.87;50.52;100981.66;4983706;27;98075;-55
2023/10/08 02:27:49;;;;;;;;;;;;;;;14.81;50.70;100993.63;4947232;27;99451;-54
2023/10/08 02:30:17;;;;;;;;;;;;;;;14.75;50.51;100997.47;4981653;27;98550;-60
2023/10/08 02:32:43;;;;;;;;;;;;;;;14.69;50.47;101027.34;4966650;27;98274;-55
2023/10/08 02:35:11;;;;;;;;;;;;;;;14.65;51.26;101047.19;4945384;27;110168;-61
2023/10/08 02:37:40;;;;;;;;;;;;;;;14.59;50.89;101049.13;4981738;27;98513;-55
2023/10/08 02:40:28;;;;;;;;;;;;;;;14.53;50.90;101035.84;4963805;27;98743;-55
2023/10/08 02:43:00;;;;;;;;;;;;;;;14.45;50.36;101023.66;4983172;27;98487;-62
2023/10/08 02:45:27;;;;;;;;;;;;;;;14.40;50.48;101027.22;4963169;27;99652;-55
2023/10/08 02:47:54;;;;;;;;;;;;;;;14.37;50.20;101032.38;4947256;27;99390;-62
2023/10/08 02:50:22;;;;;;;;;;;;;;;14.34;50.22;101038.38;4977058;27;99073;-62
2023/10/08 02:52:51;;;;;;;;;;;;;;;14.32;50.16;101054.13;4947413;27;100618;-55
2023/10/08 02:55:28;;;;;;;;;;;;;;;14.27;49.93;101065.78;4975018;27;98253;-55
2023/10/08 02:57:56;;;;;;;;;;;;;;;14.24;50.00;101077.19;4964144;27;98315;-61
2023/10/08 03:00:29;;;;;;;;;;;;;;;14.23;50.00;101072.88;4964240;27;98367;-62
2023/10/08 03:03:01;;;;;;;;;;;;;;;14.21;50.02;101065.00;4943428;27;100495;-55
2023/10/08 03:05:35;;;;;;;;;;;;;;;14.17;50.15;101058.50;4961276;27;102537;-62
2023/10/08 03:08:02;;;;;;;;;;;;;;;14.15;50.21;101073.44;4947568;27;99055;-55
2023/10/08 03:10:33;;;;;;;;;;;;;;;14.12;50.00;101082.13;4984367;27;99661;-61
2023/10/08 03:13:05;;;;;;;;;;;;;;;14.10;50.19;101081.56;4981989;27;98155;-61
2023/10/08 03:18:09;;;;;;;;;;;;;;;14.04;49.79;101113.31;4968372;27;97933;-55
2023/10/08 03:20:44;;;;;;;;;;;;;;;14.05;50.10;101108.69;4951652;27;98260;-61
2023/10/08 03:23:23;;;;;;;;;;;;;;;14.02;49.74;101126.31;4938671;27;99950;-55
2023/10/08 03:26:02;;;;;;;;;;;;;;;13.99;50.04;101113.31;4967836;27;98214;-55
2023/10/08 03:28:34;;;;;;;;;;;;;;;13.98;50.16;101108.97;4955525;27;99842;-55
2023/10/08 03:31:04;;;;;;;;;;;;;;;13.94;49.65;101102.47;4966913;27;98755;-61
2023/10/08 03:33:34;;;;;;;;;;;;;;;13.94;49.86;101121.44;4964656;27;98565;-62
2023/10/08 03:36:09;;;;;;;;;;;;;;;13.93;49.75;101119.84;4963366;27;98466;-61
2023/10/08 03:38:45;;;;;;;;;;;;;;;13.91;49.79;101114.69;4979101;27;99453;-55
2023/10/08 03:41:16;;;;;;;;;;;;;;;13.91;49.75;101127.41;4947738;27;98884;-55
2023/10/08 03:46:42;;;;;;;;;;;;;;;13.85;50.06;101142.88;4974054;27;99262;-58
2023/10/08 03:49:31;;;;;;;;;;;;;;;13.84;50.00;101146.69;4959593;27;99099;-58
2023/10/08 03:51:57;;;;;;;;;;;;;;;13.83;49.94;101149.63;4984199;27;99431;-62
2023/10/08 03:54:29;;;;;;;;;;;;;;;13.83;50.09;101155.88;4948417;27;100244;-55
2023/10/08 03:56:55;;;;;;;;;;;;;;;13.82;49.90;101134.47;4941999;28;98189;-62
2023/10/08 03:59:31;;;;;;;;;;;;;;;13.82;49.83;101139.91;4967121;27;97847;-55
2023/10/08 04:02:01;;;;;;;;;;;;;;;13.80;49.53;101139.38;4965552;27;98013;-55
2023/10/08 04:04:48;;;;;;;;;;;;;;;13.80;49.88;101147.50;4967752;27;99121;-55
2023/10/08 04:12:35;;;;;;;;;;;;;;;13.79;49.71;101157.50;4966328;27;98379;-62
2023/10/08 04:15:07;;;;;;;;;;;;;;;13.78;49.61;101155.88;4997300;27;99580;-55
2023/10/08 04:17:43;;;;;;;;;;;;;;;13.77;49.50;101158.88;4983283;27;99529;-61
2023/10/08 04:23:01;;;;;;;;;;;;;;;13.77;49.39;101154.25;4951758;27;98205;-55
2023/10/08 04:25:27;;;;;;;;;;;;;;;13.75;49.75;101153.72;4966749;27;98144;-55
2023/10/08 04:27:58;;;;;;;;;;;;;;;13.74;49.57;101154.81;4983236;27;100940;-55
2023/10/08 04:30:32;;;;;;;;;;;;;;;13.74;49.75;101157.50;4952369;27;98043;-55
2023/10/08 04:33:08;;;;;;;;;;;;;;;13.72;49.54;101174.06;4966978;27;99240;-55
2023/10/08 04:35:47;;;;;;;;;;;;;;;13.72;49.45;101186.78;4971753;27;100765;-62
2023/10/08 04:38:19;;;;;;;;;;;;;;;13.72;49.59;101189.50;4956292;27;99955;-55
2023/10/08 04:40:51;;;;;;;;;;;;;;;13.70;49.76;101192.47;4969654;27;98557;-61
2023/10/08 04:43:27;;;;;;;;;;;;;;;13.70;49.71;101188.94;4971034;27;98187;-55
2023/10/08 04:46:05;;;;;;;;;;;;;;;13.69;49.72;101190.84;4973182;27;97852;-55
2023/10/08 04:48:36;;;;;;;;;;;;;;;13.68;49.27;101200.06;4968188;27;99824;-61
2023/10/08 04:51:03;;;;;;;;;;;;;;;13.67;49.62;101198.41;4987799;27;98434;-56
2023/10/08 04:53:32;;;;;;;;;;;;;;;13.66;49.56;101204.09;5004965;27;98728;-61
2023/10/08 04:56:05;;;;;;;;;;;;;;;13.65;49.64;101216.03;4968613;27;98461;-61
2023/10/08 04:58:36;;;;;;;;;;;;;;;13.64;49.32;101219.84;4953877;27;98995;-61
2023/10/08 05:01:17;;;;;;;;;;;;;;;13.63;49.53;101227.13;4985665;27;98806;-55
2023/10/08 05:17:09;;;;;;;;;;;;;;;13.61;49.52;101264.53;4954178;27;98852;-61
2023/10/08 05:25:24;;;;;;;;;;;;;;;13.64;49.56;101274.00;4957010;27;98924;-55
2023/10/08 05:30:28;;;;;;;;;;;;;;;13.64;49.65;101288.38;4968520;27;98019;-61
2023/10/08 06:13:06;;;;;;;;;;;;;;;13.74;49.23;101341.75;4973357;27;98666;-55
2023/10/08 06:18:29;;;;;;;;;;;;;;;13.84;48.93;101343.69;4982092;28;98180;-61
2023/10/08 06:20:59;;;;;;;;;;;;;;;13.87;49.13;101343.13;4949564;28;98123;-55
2023/10/08 06:23:31;;;;;;;;;;;;;;;13.90;49.01;101332.56;4933504;28;98179;-61
2023/10/08 06:25:58;;;;;;;;;;;;;;;13.95;49.18;101338.00;4949188;28;98424;-55
2023/10/08 06:28:26;;;;;;;;;;;;;;;13.98;48.87;101344.78;4945215;28;98714;-61
2023/10/08 06:30:56;;;;;;;;;;;;;;;14.03;49.07;101341.25;4960281;28;98894;-54
2023/10/08 06:33:30;;;;;;;;;;;;;;;14.06;49.01;101373.25;4964771;28;99323;-61
2023/10/08 06:36:02;;;;;;;;;;;;;;;14.09;48.55;101400.63;4960872;28;99693;-55
2023/10/08 06:38:32;;;;;;;;;;;;;;;14.13;48.71;101399.03;4946357;28;99135;-61
2023/10/08 06:41:14;;;;;;;;;;;;;;;14.23;48.71;101381.97;4963101;28;99317;-55
2023/10/08 06:44:02;;;;;;;;;;;;;;;14.25;48.96;101399.56;4965529;28;99158;-61
2023/10/08 06:46:32;;;;;;;;;;;;;;;14.21;48.92;101406.63;4945637;27;100450;-62
2023/10/08 06:48:59;;;;;;;;;;;;;;;14.18;48.92;101411.78;4946983;28;99529;-61
2023/10/08 06:51:26;;;;;;;;;;;;;;;14.18;48.88;101420.72;4930353;28;99447;-62
2023/10/08 06:53:53;;;;;;;;;;;;;;;14.23;48.59;101393.63;4973891;27;98580;-62
2023/10/08 06:56:20;;;;;;;;;;;;;;;14.31;48.54;101391.47;4956938;28;98059;-61
2023/10/08 06:58:51;;;;;;;;;;;;;;;14.36;48.75;101400.41;4928561;28;98176;-61
2023/10/08 07:01:21;;;;;;;;;;;;;;;14.35;48.63;101433.25;4960160;28;99733;-55
2023/10/08 07:03:51;;;;;;;;;;;;;;;14.29;48.72;101426.97;4959490;28;99964;-60
2023/10/08 07:06:25;;;;;;;;;;;;;;;14.25;49.00;101445.69;4936635;28;99609;-55
2023/10/08 07:08:55;;;;;;;;;;;;;;;14.24;48.81;101437.81;4958665;28;98332;-55
2023/10/08 07:11:21;;;;;;;;;;;;;;;14.29;48.90;101437.00;4957418;28;98577;-62
2023/10/08 07:13:48;;;;;;;;;;;;;;;14.37;48.54;101450.84;4938673;27;98459;-55
2023/10/08 07:16:17;;;;;;;;;;;;;;;14.47;48.82;101452.78;4960741;27;98106;-61
2023/10/08 07:18:51;;;;;;;;;;;;;;;14.58;48.59;101450.91;4939689;27;99726;-55
2023/10/08 07:21:17;;;;;;;;;;;;;;;14.75;48.53;101464.22;4965901;28;98640;-55
2023/10/08 07:23:59;;;;;;;;;;;;;;;14.83;48.45;101463.69;4962574;27;99166;-55
2023/10/08 07:26:37;;;;;;;;;;;;;;;14.85;48.28;101472.34;4960594;28;99771;-61
2023/10/08 07:29:08;;;;;;;;;;;;;;;14.83;48.43;101479.97;4960243;27;98448;-55
2023/10/08 07:31:36;;;;;;;;;;;;;;;14.91;48.67;101488.38;4961064;27;99882;-55
2023/10/08 07:34:18;;;;;;;;;;;;;;;14.93;48.36;101485.38;4957466;27;98559;-61
2023/10/08 07:36:49;;;;;;;;;;;;;;;15.08;48.53;101490.00;4946156;27;100018;-55
2023/10/08 07:41:57;;;;;;;;;;;;;;;15.30;48.13;101492.44;4976551;27;98946;-61
2023/10/08 07:44:24;;;;;;;;;;;;;;;15.32;48.37;101495.66;4974244;27;99198;-55
2023/10/08 07:46:51;;;;;;;;;;;;;;;15.35;48.03;101493.22;4960680;27;99790;-61
2023/10/08 07:49:17;;;;;;;;;;;;;;;15.43;47.90;101500.81;4954165;28;98248;-62
2023/10/08 07:51:52;;;;;;;;;;;;;;;15.41;48.07;101516.59;4942604;27;100215;-61
2023/10/08 07:54:23;;;;;;;;;;;;;;;15.40;48.27;101522.28;4936142;28;98383;-54
2023/10/08 07:56:51;;;;;;;;;;;;;;;15.41;48.36;101530.19;4922260;27;99260;-55
2023/10/08 07:59:17;;;;;;;;;;;;;;;15.50;48.70;101525.00;4949216;27;98404;-61
2023/10/08 08:01:43;;;;;;;;;;;;;;;15.45;48.19;101527.72;4961238;27;128567;-61
2023/10/08 08:04:22;;;;;;;;;;;;;;;15.49;48.21;101536.16;4978456;27;98258;-55
2023/10/08 08:06:50;;;;;;;;;;;;;;;15.53;48.11;101543.47;4938858;27;98363;-55
2023/10/08 08:09:23;;;;;;;;;;;;;;;15.62;48.22;101544.53;4976567;27;99059;-62
2023/10/08 08:11:49;;;;;;;;;;;;;;;15.61;48.16;101542.09;4955413;27;99177;-61
2023/10/08 08:14:24;;;;;;;;;;;;;;;15.65;47.96;101548.63;4969589;27;98528;-61
2023/10/08 08:16:50;;;;;;;;;;;;;;;15.73;48.01;101547.25;4963985;27;98363;-55
2023/10/08 08:19:17;;;;;;;;;;;;;;;15.83;47.89;101541.78;4962948;28;98229;-55
2023/10/08 08:21:46;;;;;;;;;;;;;;;16.15;47.54;101546.81;4961460;27;100305;-56
2023/10/08 08:24:13;;;;;;;;;;;;;;;16.54;47.26;101549.63;4964348;27;98048;-56
2023/10/08 08:27:01;;;;;;;;;;;;;;;16.79;46.73;101554.16;4961604;27;99231;-56
2023/10/08 08:29:28;;;;;;;;;;;;;;;16.88;47.17;101559.78;4979216;27;102072;-62
2023/10/08 08:31:56;;;;;;;;;;;;;;;17.01;46.91;101564.59;4074140;27;10000575;-56
2023/10/08 08:34:23;;;;;;;;;;;;;;;17.14;46.96;101558.50;4980810;27;99049;-62
2023/10/08 08:36:49;;;;;;;;;;;;;;;17.56;46.47;101553.50;4963531;28;98260;-56
2023/10/08 08:39:32;;;;;;;;;;;;;;;18.09;45.90;101559.75;4930789;28;98427;-62
2023/10/08 08:42:01;;;;;;;;;;;;;;;18.71;45.46;101558.97;4955876;27;99650;-56
2023/10/08 08:44:31;;;;;;;;;;;;;;;20.23;43.93;101562.84;4978548;27;98778;-56
2023/10/08 08:47:04;;;;;;;;;;;;;;;19.82;44.59;101564.47;4942057;27;99994;-62
2023/10/08 08:49:34;;;;;;;;;;;;;;;19.52;45.22;101568.56;4956217;28;98477;-56
2023/10/08 08:52:00;;;;;;;;;;;;;;;19.06;46.07;101566.63;4958315;28;98550;-62
2023/10/08 08:54:30;;;;;;;;;;;;;;;18.61;46.43;101571.63;4946282;27;99043;-62
2023/10/08 08:56:59;;;;;;;;;;;;;;;18.24;46.97;101571.59;4930234;27;98758;-61
2023/10/08 08:59:29;;;;;;;;;;;;;;;17.84;47.29;101581.84;4917184;28;98378;-62
2023/10/08 09:01:59;;;;;;;;;;;;;;;17.64;47.40;101567.31;4920277;28;99336;-56
2023/10/08 09:04:32;;;;;;;;;;;;;;;18.08;46.64;101582.69;4949516;28;98155;-62
2023/10/08 09:07:03;;;;;;;;;;;;;;;18.25;46.66;101586.84;4934933;28;99583;-62
2023/10/08 09:09:33;;;;;;;;;;;;;;;19.36;45.45;101578.94;4939135;28;99397;-62
2023/10/08 09:12:00;;;;;;;;;;;;;;;20.15;44.87;101585.44;4918199;28;98753;-62
2023/10/08 09:14:26;;;;;;;;;;;;;;;21.00;44.18;101590.16;4941568;28;99147;-62
2023/10/08 09:17:00;;;;;;;;;;;;;;;22.02;43.12;101590.28;4952531;28;98216;-56
2023/10/08 09:19:26;;;;;;;;;;;;;;;23.18;42.31;101598.06;4960345;27;100129;-56
2023/10/08 09:22:04;;;;;;;;;;;;;;;23.61;42.73;101596.34;4976092;27;99144;-54
2023/10/08 09:24:36;;;;;;;;;;;;;;;23.90;43.36;101603.91;4998792;27;98384;-60
2023/10/08 09:27:14;;;;;;;;;;;;;;;25.30;42.39;101601.81;4997704;27;99416;-60
2023/10/08 09:29:40;;;;;;;;;;;;;;;26.30;42.18;101614.28;5006478;27;98129;-61
2023/10/08 09:32:10;;;;;;;;;;;;;;;25.73;43.06;101612.38;4975104;27;111828;-62
2023/10/08 09:34:36;;;;;;;;;;;;;;;24.66;43.97;101617.59;4977425;27;98154;-56
2023/10/08 09:37:03;;;;;;;;;;;;;;;26.29;41.57;101614.63;4991631;27;99772;-62
2023/10/08 09:39:33;;;;;;;;;;;;;;;24.04;44.11;101607.22;4979873;27;99319;-62
2023/10/08 09:42:02;;;;;;;;;;;;;;;24.43;43.42;101619.84;4998984;27;98622;-62
2023/10/08 09:44:28;;;;;;;;;;;;;;;26.73;41.15;101609.28;4968097;27;102032;-56
2023/10/08 09:47:05;;;;;;;;;;;;;;;26.62;41.95;101606.19;4992546;27;100512;-63
2023/10/08 09:49:42;;;;;;;;;;;;;;;25.91;43.42;101618.53;4976845;27;98452;-56
2023/10/08 09:52:10;;;;;;;;;;;;;;;24.79;44.17;101615.69;4994409;27;102896;-62
2023/10/08 09:54:44;;;;;;;;;;;;;;;23.85;45.02;101621.38;4978905;27;98934;-61
2023/10/08 09:57:11;;;;;;;;;;;;;;;23.03;45.53;101628.81;4960291;27;98461;-55
2023/10/08 09:59:40;;;;;;;;;;;;;;;22.60;45.72;101643.31;4989281;27;98506;-55
2023/10/08 10:02:09;;;;;;;;;;;;;;;22.34;45.56;101637.75;4978562;27;98509;-62
2023/10/08 10:04:35;;;;;;;;;;;;;;;22.54;45.18;101653.63;4996375;27;99055;-62
2023/10/08 10:07:12;;;;;;;;;;;;;;;25.48;41.91;101665.94;4980738;27;100743;-62
2023/10/08 10:09:39;;;;;;;;;;;;;;;26.42;41.25;101682.56;4998244;27;99794;-62
2023/10/08 10:12:09;;;;;;;;;;;;;;;29.38;38.18;101686.75;4991631;27;98005;-56
2023/10/08 10:14:42;;;;;;;;;;;;;;;28.84;38.99;101665.41;4983802;27;98090;-62
2023/10/08 10:17:10;;;;;;;;;;;;;;;26.56;41.59;101694.06;4982173;27;98351;-55
2023/10/08 10:19:38;;;;;;;;;;;;;;;27.22;40.86;101658.94;4998470;27;101546;-62
2023/10/08 10:22:05;;;;;;;;;;;;;;;27.23;40.80;101653.03;4986736;27;98197;-56
2023/10/08 10:24:37;;;;;;;;;;;;;;;26.19;42.32;101646.28;4971186;27;98313;-56
2023/10/08 10:27:14;;;;;;;;;;;;;;;25.70;42.62;101654.47;4974244;27;98349;-55
2023/10/08 10:29:43;;;;;;;;;;;;;;;25.48;42.66;101652.13;4991690;27;99550;-56
2023/10/08 10:32:13;;;;;;;;;;;;;;;25.80;42.49;101648.56;4980573;27;98423;-62
2023/10/08 10:34:39;;;;;;;;;;;;;;;25.97;42.42;101638.44;4993935;27;98236;-62
2023/10/08 10:37:21;;;;;;;;;;;;;;;26.05;42.20;101641.09;4998261;27;104512;-62
2023/10/08 10:39:55;;;;;;;;;;;;;;;24.86;43.57;101653.78;4979871;27;98377;-62
2023/10/08 10:42:21;;;;;;;;;;;;;;;23.90;44.08;101651.50;4988523;27;98535;-55
2023/10/08 10:44:53;;;;;;;;;;;;;;;23.16;44.98;101654.53;4991974;27;98243;-55
2023/10/08 10:52:31;;;;;;;;;;;;;;;22.32;45.18;101656.47;4996287;27;98292;-62
2023/10/08 10:58:11;;;;;;;;;;;;;;;23.53;43.87;101656.56;4981406;27;98955;-59
2023/10/08 11:03:04;;;;;;;;;;;;;;;22.45;45.04;101661.03;5003366;27;98590;-56
2023/10/08 11:05:37;;;;;;;;;;;;;;;22.17;45.27;101657.72;4966945;27;99208;-55
2023/10/08 11:08:06;;;;;;;;;;;;;;;22.73;44.21;101658.84;4980483;27;99784;-55
2023/10/08 11:10:50;;;;;;;;;;;;;;;23.32;43.59;101655.66;4996614;27;99281;-61
2023/10/08 11:13:17;;;;;;;;;;;;;;;23.67;43.16;101650.94;4979605;27;98130;-62
2023/10/08 11:15:49;;;;;;;;;;;;;;;23.93;43.36;101655.53;4981693;27;98286;-62
2023/10/08 11:18:15;;;;;;;;;;;;;;;24.19;43.25;101660.94;4986233;27;98461;-62
2023/10/08 11:20:44;;;;;;;;;;;;;;;24.45;43.01;101661.66;4992068;27;99922;-56
2023/10/08 11:23:35;;;;;;;;;;;;;;;24.76;42.86;101655.00;4994019;27;98789;-62
2023/10/08 11:26:04;;;;;;;;;;;;;;;25.19;42.30;101664.88;4998743;27;98306;-62
2023/10/08 11:28:47;;;;;;;;;;;;;;;25.34;42.22;101655.97;4996842;27;99049;-62
2023/10/08 11:31:14;;;;;;;;;;;;;;;25.36;42.38;101650.94;4977448;27;99434;-62
2023/10/08 11:33:56;;;;;;;;;;;;;;;25.38;42.52;101653.34;4976804;27;98298;-56
2023/10/08 11:36:27;;;;;;;;;;;;;;;25.70;42.31;101654.47;4993468;27;97954;-56
2023/10/08 11:39:00;;;;;;;;;;;;;;;26.33;41.56;101648.69;4978654;27;98272;-62
2023/10/08 11:41:27;;;;;;;;;;;;;;;26.74;41.34;101653.19;4965583;27;98236;-62
2023/10/08 11:43:58;;;;;;;;;;;;;;;26.43;41.70;101642.72;4977535;27;98139;-56
2023/10/08 11:46:32;;;;;;;;;;;;;;;25.68;42.54;101651.25;5005626;27;98565;-55
2023/10/08 11:49:04;;;;;;;;;;;;;;;26.06;42.01;101634.44;4993872;27;98433;-62
2023/10/08 11:51:34;;;;;;;;;;;;;;;26.09;41.78;101641.22;4977926;27;100395;-62
2023/10/08 11:54:06;;;;;;;;;;;;;;;25.87;42.17;101636.94;4990098;27;99354;-56
2023/10/08 11:56:33;;;;;;;;;;;;;;;25.66;41.95;101636.97;4991178;27;98510;-62
2023/10/08 11:59:01;;;;;;;;;;;;;;;25.12;42.57;101632.34;5009571;27;98572;-56
2023/10/08 12:01:27;;;;;;;;;;;;;;;25.03;42.37;101636.28;4979388;27;99324;-62
2023/10/08 12:03:59;;;;;;;;;;;;;;;24.73;42.88;101636.34;4982127;27;98605;-62
2023/10/08 12:06:29;;;;;;;;;;;;;;;24.53;42.92;101631.63;5006513;27;99765;-62
2023/10/08 12:08:58;;;;;;;;;;;;;;;24.41;42.70;101632.34;4977725;27;98473;-62
2023/10/08 12:11:31;;;;;;;;;;;;;;;24.16;42.58;101631.31;4978303;27;99767;-62
2023/10/08 12:13:58;;;;;;;;;;;;;;;23.49;43.30;101630.84;4946914;27;99176;-56
2023/10/08 12:16:29;;;;;;;;;;;;;;;23.72;42.66;101633.44;4971766;27;99978;-55
2023/10/08 12:19:01;;;;;;;;;;;;;;;23.23;42.69;101639.16;4943180;27;101360;-56
2023/10/08 12:21:30;;;;;;;;;;;;;;;22.79;43.57;101635.56;4956921;27;98605;-55
2023/10/08 12:24:01;;;;;;;;;;;;;;;22.30;43.89;101629.31;4958886;27;99233;-62
2023/10/08 12:26:27;;;;;;;;;;;;;;;22.47;43.55;101628.56;4945846;27;98203;-62
2023/10/08 12:28:55;;;;;;;;;;;;;;;22.30;43.95;101621.09;4946320;27;100098;-56
2023/10/08 12:31:24;;;;;;;;;;;;;;;21.73;44.57;101633.88;4972907;27;99661;-56
2023/10/08 12:33:53;;;;;;;;;;;;;;;21.27;44.81;101630.34;4943879;28;98921;-56
2023/10/08 12:36:22;;;;;;;;;;;;;;;20.91;44.92;101629.59;4962919;27;98402;-56
2023/10/08 12:38:49;;;;;;;;;;;;;;;20.68;45.06;101636.94;4958835;27;100597;-62
2023/10/08 12:41:16;;;;;;;;;;;;;;;20.47;45.27;101636.53;4963893;28;99688;-55
2023/10/08 12:43:45;;;;;;;;;;;;;;;20.25;45.24;101624.38;4946343;28;98139;-55
2023/10/08 12:46:23;;;;;;;;;;;;;;;20.22;45.12;101633.19;4982682;27;98349;-62
2023/10/08 12:48:53;;;;;;;;;;;;;;;20.40;44.56;101611.50;4947780;28;98920;-62
2023/10/08 12:51:23;;;;;;;;;;;;;;;20.40;44.37;101614.25;4948068;28;99249;-56
2023/10/08 12:53:50;;;;;;;;;;;;;;;20.63;44.20;101618.66;4946940;27;98323;-62
2023/10/08 12:56:21;;;;;;;;;;;;;;;20.26;44.54;101620.53;4930995;27;98206;-62
2023/10/08 12:58:53;;;;;;;;;;;;;;;19.92;45.06;101620.91;4977585;27;98496;-62
2023/10/08 13:01:19;;;;;;;;;;;;;;;19.70;45.02;101618.88;4939957;27;98440;-55
2023/10/08 13:03:49;;;;;;;;;;;;;;;19.70;44.87;101613.41;4943968;27;100200;-56
2023/10/08 13:06:22;;;;;;;;;;;;;;;19.45;44.92;101611.06;4945503;28;98496;-56
2023/10/08 13:08:54;;;;;;;;;;;;;;;19.26;45.13;101608.41;4959567;27;98846;-55
2023/10/08 13:11:24;;;;;;;;;;;;;;;19.11;45.27;101606.72;4928305;27;100120;-62
2023/10/08 13:13:56;;;;;;;;;;;;;;;19.04;45.41;101609.00;4988653;27;98461;-55
2023/10/08 13:16:22;;;;;;;;;;;;;;;19.30;45.08;101601.22;4996757;27;98779;-55
2023/10/08 13:18:49;;;;;;;;;;;;;;;19.49;44.83;101593.78;4982152;27;99844;-62
2023/10/08 13:21:15;;;;;;;;;;;;;;;19.69;44.66;101600.00;4964326;27;99566;-55
2023/10/08 13:23:42;;;;;;;;;;;;;;;19.80;44.36;101585.03;4979692;27;100109;-55
2023/10/08 13:26:08;;;;;;;;;;;;;;;19.88;44.39;101584.31;5014039;27;98382;-61
2023/10/08 13:28:37;;;;;;;;;;;;;;;19.95;44.43;101592.94;4999874;27;98344;-62
2023/10/08 13:31:10;;;;;;;;;;;;;;;20.02;44.21;101584.34;4979507;27;98326;-55
2023/10/08 13:33:42;;;;;;;;;;;;;;;20.08;44.18;101591.31;4979606;27;101791;-55
2023/10/08 13:36:08;;;;;;;;;;;;;;;20.13;44.19;101595.91;4998735;27;98292;-55
2023/10/08 13:38:37;;;;;;;;;;;;;;;20.18;44.30;101599.34;4992683;27;110241;-56
2023/10/08 13:41:14;;;;;;;;;;;;;;;20.28;44.25;101599.16;4997496;27;107219;-62
2023/10/08 13:43:46;;;;;;;;;;;;;;;20.42;44.00;101590.09;4999116;27;98240;-62
2023/10/08 13:46:17;;;;;;;;;;;;;;;20.42;44.04;101595.56;4996192;27;98305;-62
2023/10/08 13:48:47;;;;;;;;;;;;;;;20.39;44.02;101604.38;4995384;27;98431;-62
2023/10/08 13:51:14;;;;;;;;;;;;;;;20.34;44.25;101606.13;4996858;27;98273;-55
2023/10/08 13:53:41;;;;;;;;;;;;;;;20.29;43.88;101602.69;5013044;27;98129;-55
2023/10/08 13:56:08;;;;;;;;;;;;;;;20.13;43.69;101602.19;4994280;27;98307;-62
2023/10/08 13:58:41;;;;;;;;;;;;;;;19.96;44.09;101612.91;4983361;27;99018;-62
2023/10/08 14:01:19;;;;;;;;;;;;;;;19.79;44.37;101608.03;4978629;27;99249;-55
2023/10/08 14:03:48;;;;;;;;;;;;;;;19.59;44.45;101617.38;4983584;27;98393;-62
2023/10/08 14:06:16;;;;;;;;;;;;;;;19.45;44.65;101616.53;4981046;27;100760;-55
2023/10/08 14:08:48;;;;;;;;;;;;;;;19.36;44.60;101613.69;4978946;27;98827;-55
2023/10/08 14:11:14;;;;;;;;;;;;;;;19.25;44.46;101620.41;4977102;27;102108;-62
2023/10/08 14:13:42;;;;;;;;;;;;;;;19.04;44.52;101619.94;4983825;27;99641;-61
2023/10/08 14:16:11;;;;;;;;;;;;;;;18.87;44.88;101618.53;5010093;27;98180;-62
2023/10/08 14:18:53;;;;;;;;;;;;;;;18.79;44.85;101616.47;4976934;27;98413;-62
2023/10/08 14:21:23;;;;;;;;;;;;;;;18.70;44.90;101620.09;4980087;27;98018;-55
2023/10/08 14:23:52;;;;;;;;;;;;;;;18.62;44.80;101616.13;4980075;27;98253;-55
2023/10/08 14:26:21;;;;;;;;;;;;;;;18.54;44.91;101617.59;4969697;27;98861;-62
2023/10/08 14:28:52;;;;;;;;;;;;;;;18.49;44.90;101617.66;4997064;27;99348;-62
2023/10/08 14:31:22;;;;;;;;;;;;;;;18.45;45.12;101619.34;4981402;27;97970;-55
2023/10/08 14:34:19;;;;;;;;;;;;;;;18.42;45.12;101619.91;4980496;27;98930;-62